Time;durP1;ratioP1;P1;durP2;ratioP2;P2;SDS_P1;SDS_P2;PMS_P1;PMS_P2;Temp;Humidity;BMP_temperature;BMP_pressure;BME280_temperature;BME280_humidity;BME280_pressure;Samples;Min_cycle;Max_cycle;Signal;HPM_P1;HPM_P2
2023/01/07 00:02:05;;;;;;;26.70;9.13;;;;;;;;;;5046583;28;20467;-62
2023/01/07 00:04:31;;;;;;;27.67;6.17;;;11.20;99.90;;;;;;5049539;28;20788;-62
2023/01/07 00:06:58;;;;;;;28.70;7.97;;;11.30;99.90;;;;;;5047909;28;20479;-62
2023/01/07 00:09:25;;;;;;;30.53;7.93;;;11.40;99.90;;;;;;5062777;28;20469;-62
2023/01/07 00:11:51;;;;;;;27.47;7.87;;;11.40;99.90;;;;;;5051527;28;20476;-61
2023/01/07 00:14:19;;;;;;;23.63;6.80;;;11.50;99.90;;;;;;5050536;28;20476;-62
2023/01/07 00:16:46;;;;;;;21.97;7.93;;;11.60;99.90;;;;;;5049643;28;20489;-62
2023/01/07 00:19:15;;;;;;;39.77;10.33;;;11.60;99.90;;;;;;5069336;28;20495;-61
2023/01/07 00:21:42;;;;;;;28.00;7.77;;;;;;;;;;5055307;28;20498;-61
2023/01/07 00:24:10;;;;;;;34.60;10.23;;;11.60;99.90;;;;;;5060408;28;20984;-61
2023/01/07 00:26:38;;;;;;;25.43;6.30;;;;;;;;;;5061763;28;20479;-61
2023/01/07 00:29:05;;;;;;;30.33;10.37;;;;;;;;;;5044411;28;20478;-61
2023/01/07 00:31:35;;;;;;;27.70;8.43;;;11.70;99.90;;;;;;5040928;28;20702;-62
2023/01/07 00:34:08;;;;;;;31.17;9.70;;;11.70;99.90;;;;;;5043654;28;20498;-62
2023/01/07 00:36:40;;;;;;;28.87;9.93;;;11.70;99.90;;;;;;5048257;28;20497;-61
2023/01/07 00:39:09;;;;;;;37.30;11.73;;;11.70;99.90;;;;;;5056225;28;20481;-61
2023/01/07 00:41:37;;;;;;;18.37;5.77;;;;;;;;;;5077900;28;20470;-61
2023/01/07 00:44:04;;;;;;;23.57;6.57;;;11.50;99.90;;;;;;5044325;28;20471;-62
2023/01/07 00:46:31;;;;;;;19.37;5.80;;;;;;;;;;5048529;28;20808;-61
2023/01/07 00:49:00;;;;;;;24.27;7.80;;;11.60;99.90;;;;;;5043190;28;20894;-62
2023/01/07 00:51:26;;;;;;;25.70;8.17;;;11.70;99.90;;;;;;5086175;27;20564;-61
2023/01/07 00:53:53;;;;;;;30.87;7.23;;;11.60;99.90;;;;;;5078736;28;20476;-62
2023/01/07 00:56:21;;;;;;;15.90;7.57;;;;;;;;;;5058253;28;20489;-62
2023/01/07 00:58:47;;;;;;;18.60;7.53;;;11.50;99.90;;;;;;5066643;28;20485;-62
2023/01/07 01:01:14;;;;;;;47.00;10.67;;;11.50;99.90;;;;;;5073338;28;20481;-62
2023/01/07 01:03:41;;;;;;;27.47;7.60;;;11.50;99.90;;;;;;5079477;28;20484;-61
2023/01/07 01:06:13;;;;;;;30.10;10.10;;;11.50;99.90;;;;;;5074695;28;20935;-61
2023/01/07 01:08:41;;;;;;;20.80;7.40;;;;;;;;;;5038799;28;20495;-61
2023/01/07 01:11:09;;;;;;;30.80;11.23;;;11.60;99.90;;;;;;5055808;28;21271;-61
2023/01/07 01:13:38;;;;;;;19.30;6.33;;;11.60;99.90;;;;;;5060307;28;20533;-62
2023/01/07 01:16:09;;;;;;;39.33;12.10;;;11.70;99.90;;;;;;5054175;28;20475;-62
2023/01/07 01:18:35;;;;;;;20.97;8.20;;;11.60;99.90;;;;;;5070925;28;20565;-61
2023/01/07 01:21:03;;;;;;;26.83;10.13;;;;;;;;;;5048834;28;20483;-61
2023/01/07 01:23:31;;;;;;;29.43;8.50;;;11.50;99.90;;;;;;5049073;28;20475;-62
2023/01/07 01:26:02;;;;;;;30.97;8.37;;;;;;;;;;5033467;28;20472;-62
2023/01/07 01:28:29;;;;;;;26.77;8.10;;;;;;;;;;5076093;28;21128;-61
2023/01/07 01:30:56;;;;;;;26.93;6.97;;;11.30;99.90;;;;;;5040055;28;20502;-61
2023/01/07 01:33:23;;;;;;;26.33;8.30;;;11.30;99.90;;;;;;5064404;27;21045;-61
2023/01/07 01:35:49;;;;;;;34.33;9.27;;;11.20;99.90;;;;;;5063086;28;20474;-62
2023/01/07 01:38:17;;;;;;;28.13;9.07;;;;;;;;;;5044215;28;20471;-61
2023/01/07 01:40:44;;;;;;;30.10;8.20;;;11.20;99.90;;;;;;5074835;28;20933;-61
2023/01/07 01:43:26;;;;;;;42.03;11.70;;;11.10;99.90;;;;;;5048804;28;20484;-61
2023/01/07 01:45:54;;;;;;;29.30;9.50;;;11.10;99.90;;;;;;5047720;28;20553;-62
2023/01/07 01:48:21;;;;;;;32.17;8.00;;;;;;;;;;5070450;28;20477;-61
2023/01/07 01:50:49;;;;;;;38.93;10.60;;;11.00;99.90;;;;;;5045172;28;21646;-62
2023/01/07 01:53:21;;;;;;;32.90;9.20;;;11.20;99.90;;;;;;5054040;28;20466;-61
2023/01/07 01:55:53;;;;;;;28.50;7.90;;;11.20;99.90;;;;;;5057397;28;21033;-61
2023/01/07 01:58:28;;;;;;;34.30;8.90;;;11.20;99.90;;;;;;5049199;28;21038;-61
2023/01/07 02:00:57;;;;;;;22.63;6.17;;;12.10;99.90;;;;;;5067923;28;20473;-62
2023/01/07 02:03:26;;;;;;;45.70;15.67;;;11.20;99.90;;;;;;5059961;28;20474;-62
2023/01/07 02:05:54;;;;;;;35.63;12.10;;;;;;;;;;5038195;28;20494;-61
2023/01/07 02:08:22;;;;;;;26.03;8.10;;;11.20;99.90;;;;;;5080674;28;20479;-61
2023/01/07 02:10:57;;;;;;;36.40;11.10;;;11.30;99.90;;;;;;5068861;28;20905;-61
2023/01/07 02:13:35;;;;;;;32.57;8.10;;;;;;;;;;5043060;28;20481;-62
2023/01/07 02:16:04;;;;;;;33.53;10.67;;;;;;;;;;5045731;28;20483;-62
2023/01/07 02:19:01;;;;;;;32.63;10.73;;;11.10;99.90;;;;;;5030293;27;20542;-61
2023/01/07 02:21:41;;;;;;;38.47;8.70;;;11.60;99.90;;;;;;5061133;27;20479;-61
2023/01/07 02:24:46;;;;;;;46.13;11.50;;;10.80;99.90;;;;;;5054697;28;20593;-61
2023/01/07 02:27:45;;;;;;;39.20;13.93;;;10.90;99.90;;;;;;5077673;28;20466;-61
2023/01/07 02:30:55;;;;;;;38.83;10.30;;;11.00;99.90;;;;;;5058951;28;20488;-61
2023/01/07 02:33:37;;;;;;;27.23;8.60;;;11.10;99.90;;;;;;5051833;28;20486;-62
2023/01/07 02:36:10;;;;;;;49.93;14.23;;;;;;;;;;5040580;28;20474;-62
2023/01/07 02:38:43;;;;;;;23.13;6.33;;;;;;;;;;5044584;28;20987;-61
2023/01/07 02:41:18;;;;;;;31.27;8.80;;;11.20;99.90;;;;;;5049874;28;20831;-62
2023/01/07 02:43:52;;;;;;;20.63;6.60;;;;;;;;;;5048869;28;20544;-62
2023/01/07 02:46:21;;;;;;;21.30;6.27;;;;;;;;;;5041919;28;20843;-61
2023/01/07 02:48:51;;;;;;;28.30;7.37;;;11.10;99.90;;;;;;5056146;28;20509;-61
2023/01/07 02:51:17;;;;;;;26.97;9.30;;;11.10;99.90;;;;;;5063672;28;20510;-61
2023/01/07 02:53:48;;;;;;;29.33;6.60;;;11.10;99.90;;;;;;5049014;28;20494;-61
2023/01/07 02:56:25;;;;;;;37.70;10.10;;;11.00;99.90;;;;;;5075235;28;21055;-61
2023/01/07 02:59:08;;;;;;;28.53;8.37;;;11.00;99.90;;;;;;5038261;28;20529;-61
2023/01/07 03:01:57;;;;;;;30.80;7.57;;;11.20;99.90;;;;;;5036300;28;20651;-61
2023/01/07 03:04:52;;;;;;;34.40;9.90;;;11.20;99.90;;;;;;5044356;28;20859;-61
2023/01/07 03:07:30;;;;;;;30.30;8.23;;;11.30;99.90;;;;;;5072695;27;20957;-61
2023/01/07 03:10:02;;;;;;;29.90;8.50;;;11.20;99.90;;;;;;5041440;28;20483;-61
2023/01/07 03:12:34;;;;;;;50.33;8.73;;;11.10;99.90;;;;;;5034079;28;20483;-61
2023/01/07 03:15:04;;;;;;;29.10;7.87;;;;;;;;;;5074007;28;20485;-60
2023/01/07 03:17:34;;;;;;;28.97;7.47;;;;;;;;;;5062458;28;20479;-60
2023/01/07 03:20:05;;;;;;;31.23;7.07;;;11.10;99.90;;;;;;5079887;27;20508;-61
2023/01/07 03:22:34;;;;;;;30.47;6.67;;;11.10;99.90;;;;;;5041597;28;20479;-61
2023/01/07 03:25:03;;;;;;;31.00;8.40;;;11.20;99.90;;;;;;5033341;28;20548;-61
2023/01/07 03:27:35;;;;;;;36.60;8.50;;;11.20;99.90;;;;;;5051209;28;20594;-61
2023/01/07 03:30:05;;;;;;;42.47;10.60;;;11.20;99.90;;;;;;5076475;28;20477;-61
2023/01/07 03:32:33;;;;;;;29.70;7.30;;;;;;;;;;5055771;28;21108;-61
2023/01/07 03:34:59;;;;;;;47.47;11.00;;;11.20;99.90;;;;;;5062687;28;20500;-61
2023/01/07 03:37:28;;;;;;;35.47;8.33;;;11.20;99.90;;;;;;5083911;27;21064;-61
2023/01/07 03:39:55;;;;;;;31.07;5.90;;;11.20;99.90;;;;;;5056983;28;20476;-61
2023/01/07 03:42:39;;;;;;;37.23;6.87;;;11.30;99.90;;;;;;5079532;27;20479;-61
2023/01/07 03:45:07;;;;;;;33.93;7.77;;;;;;;;;;5046540;28;20869;-61
2023/01/07 03:47:35;;;;;;;28.50;6.93;;;;;;;;;;5056911;27;20924;-61
2023/01/07 03:50:02;;;;;;;48.97;11.43;;;11.40;99.90;;;;;;5077146;27;20476;-61
2023/01/07 03:52:30;;;;;;;35.20;8.40;;;11.40;99.90;;;;;;5065918;28;21202;-61
2023/01/07 03:54:57;;;;;;;27.57;7.40;;;;;;;;;;5049473;28;21002;-61
2023/01/07 03:57:24;;;;;;;21.30;5.60;;;;;;;;;;5047451;28;21024;-61
2023/01/07 03:59:50;;;;;;;29.77;7.20;;;11.40;99.90;;;;;;5076897;28;20481;-61
2023/01/07 04:02:17;;;;;;;30.40;7.00;;;11.30;99.90;;;;;;5046270;28;20984;-61
2023/01/07 04:04:44;;;;;;;19.63;5.40;;;11.30;99.90;;;;;;5037838;28;20487;-61
2023/01/07 04:07:12;;;;;;;31.10;8.30;;;;;;;;;;5073399;28;21035;-61
2023/01/07 04:09:40;;;;;;;26.13;6.60;;;11.10;99.90;;;;;;5070789;28;20482;-61
2023/01/07 04:12:07;;;;;;;54.23;11.73;;;11.10;99.90;;;;;;5039203;28;20474;-61
2023/01/07 04:14:34;;;;;;;24.93;5.70;;;11.10;99.90;;;;;;5065181;28;20494;-61
2023/01/07 04:17:01;;;;;;;38.80;8.13;;;;;;;;;;5062580;28;20471;-60
2023/01/07 04:19:28;;;;;;;24.90;7.10;;;11.10;99.90;;;;;;5045772;28;20560;-61
2023/01/07 04:21:54;;;;;;;35.87;8.07;;;11.20;99.90;;;;;;5063771;28;20840;-61
2023/01/07 04:24:21;;;;;;;28.43;6.50;;;11.20;99.90;;;;;;5068667;28;20512;-61
2023/01/07 04:26:49;;;;;;;25.33;7.10;;;;;;;;;;5071681;28;20493;-60
2023/01/07 04:29:16;;;;;;;25.20;6.20;;;11.20;99.90;;;;;;5079590;28;20480;-61
2023/01/07 04:31:43;;;;;;;27.17;7.70;;;11.20;99.90;;;;;;5047835;28;20932;-61
2023/01/07 04:34:10;;;;;;;37.43;9.43;;;15.00;99.90;;;;;;5052417;28;20471;-61
2023/01/07 04:36:36;;;;;;;18.27;5.10;;;11.20;99.90;;;;;;5067126;28;20900;-61
2023/01/07 04:39:03;;;;;;;31.50;9.27;;;11.30;99.90;;;;;;5067594;28;20654;-61
2023/01/07 04:41:30;;;;;;;19.97;4.87;;;11.20;99.90;;;;;;5063188;28;20872;-61
2023/01/07 04:43:58;;;;;;;21.40;6.03;;;11.30;99.90;;;;;;5085143;28;20498;-61
2023/01/07 04:46:25;;;;;;;13.93;5.40;;;11.10;99.90;;;;;;5058366;28;20474;-61
2023/01/07 04:48:51;;;;;;;17.33;6.40;;;11.10;99.90;;;;;;5048334;28;20475;-61
2023/01/07 04:51:19;;;;;;;14.67;4.90;;;11.10;99.90;;;;;;5078976;28;21040;-61
2023/01/07 04:53:45;;;;;;;13.07;5.63;;;11.20;99.90;;;;;;5079254;28;20881;-60
2023/01/07 04:56:13;;;;;;;27.73;9.10;;;11.10;99.90;;;;;;5056248;28;20544;-61
2023/01/07 04:58:40;;;;;;;16.67;5.00;;;11.20;99.90;;;;;;5059770;28;20471;-60
2023/01/07 05:01:08;;;;;;;28.80;9.07;;;11.20;99.90;;;;;;5052985;28;21022;-61
2023/01/07 05:03:35;;;;;;;20.80;7.10;;;11.30;99.90;;;;;;5056051;28;21048;-61
2023/01/07 05:06:01;;;;;;;26.67;7.53;;;11.30;99.90;;;;;;5076875;28;20897;-61
2023/01/07 05:08:28;;;;;;;15.00;5.60;;;11.30;99.90;;;;;;5056644;28;20494;-61
2023/01/07 05:10:55;;;;;;;18.33;6.23;;;11.30;99.90;;;;;;5053649;28;20843;-61
2023/01/07 05:13:23;;;;;;;22.77;7.27;;;11.30;99.90;;;;;;5056655;28;20455;-61
2023/01/07 05:15:50;;;;;;;15.33;6.00;;;11.30;99.90;;;;;;5074421;28;20494;-61
2023/01/07 05:18:18;;;;;;;18.23;6.70;;;11.40;99.90;;;;;;5070638;28;20486;-60
2023/01/07 05:20:46;;;;;;;17.43;5.67;;;11.40;99.90;;;;;;5065843;28;20503;-61
2023/01/07 05:23:13;;;;;;;27.30;8.30;;;11.40;99.90;;;;;;5044834;28;20742;-61
2023/01/07 05:25:40;;;;;;;9.03;4.40;;;11.40;99.90;;;;;;5077355;28;20481;-61
2023/01/07 05:28:07;;;;;;;31.37;8.67;;;11.40;99.90;;;;;;5069209;28;20512;-61
2023/01/07 05:30:33;;;;;;;20.73;7.27;;;11.40;99.90;;;;;;5059339;28;20912;-61
2023/01/07 05:33:00;;;;;;;30.00;8.93;;;11.30;99.90;;;;;;5067384;28;20923;-61
2023/01/07 05:35:28;;;;;;;18.33;5.27;;;11.20;99.90;;;;;;5082971;28;20887;-62
2023/01/07 05:37:54;;;;;;;12.97;4.73;;;11.20;99.90;;;;;;5056713;28;20487;-61
2023/01/07 05:40:21;;;;;;;21.20;7.37;;;11.10;99.90;;;;;;5054281;28;20541;-61
2023/01/07 05:42:48;;;;;;;17.60;5.73;;;11.10;99.90;;;;;;5074966;28;20473;-61
2023/01/07 05:45:14;;;;;;;24.83;7.40;;;11.20;99.90;;;;;;5077377;28;20497;-61
2023/01/07 05:47:42;;;;;;;23.23;5.90;;;11.30;99.90;;;;;;5056414;28;20939;-61
2023/01/07 05:50:09;;;;;;;23.70;7.40;;;11.30;99.90;;;;;;5074037;28;20483;-60
2023/01/07 05:52:37;;;;;;;17.40;6.07;;;11.30;99.90;;;;;;5055975;28;20511;-61
2023/01/07 05:55:05;;;;;;;37.40;10.87;;;11.00;99.90;;;;;;5064394;28;20471;-61
2023/01/07 05:57:31;;;;;;;18.67;5.53;;;11.00;99.90;;;;;;5067168;28;20849;-61
2023/01/07 05:59:58;;;;;;;17.50;6.00;;;11.00;99.90;;;;;;5065070;28;20758;-61
2023/01/07 06:02:25;;;;;;;22.93;7.30;;;11.00;99.90;;;;;;5066638;28;20521;-60
2023/01/07 06:04:51;;;;;;;20.03;5.77;;;10.90;99.90;;;;;;5079443;28;20475;-61
2023/01/07 06:07:18;;;;;;;12.87;4.73;;;10.90;99.90;;;;;;5057562;28;20835;-60
2023/01/07 06:09:46;;;;;;;10.73;4.73;;;10.90;99.90;;;;;;5049972;28;20511;-60
2023/01/07 06:12:13;;;;;;;29.57;7.53;;;10.90;99.90;;;;;;5067790;28;20479;-60
2023/01/07 06:14:39;;;;;;;11.73;4.93;;;10.90;99.90;;;;;;5076238;28;20477;-61
2023/01/07 06:17:06;;;;;;;31.03;9.03;;;11.00;99.90;;;;;;5055012;28;20871;-61
2023/01/07 06:19:33;;;;;;;16.10;5.00;;;11.10;99.90;;;;;;5066985;28;20497;-61
2023/01/07 06:21:59;;;;;;;21.63;7.30;;;11.10;99.90;;;;;;5072043;28;20537;-61
2023/01/07 06:24:26;;;;;;;14.53;5.27;;;11.10;99.90;;;;;;5071083;28;20953;-61
2023/01/07 06:26:54;;;;;;;15.27;4.57;;;11.10;99.90;;;;;;5082851;28;20598;-61
2023/01/07 06:29:21;;;;;;;12.57;4.90;;;11.00;99.90;;;;;;5050922;28;20529;-61
2023/01/07 06:31:48;;;;;;;18.43;6.23;;;10.90;99.90;;;;;;5039900;28;20569;-61
2023/01/07 06:34:14;;;;;;;19.20;7.17;;;10.80;99.90;;;;;;5052140;28;20677;-61
2023/01/07 06:36:41;;;;;;;15.40;5.70;;;10.60;99.90;;;;;;5069832;28;20574;-61
2023/01/07 06:39:08;;;;;;;25.30;7.93;;;10.50;99.90;;;;;;5064431;28;20473;-61
2023/01/07 06:41:34;;;;;;;18.20;5.50;;;10.50;99.90;;;;;;5045096;28;20503;-61
2023/01/07 06:44:02;;;;;;;34.23;11.27;;;10.40;99.90;;;;;;5078624;28;20490;-61
2023/01/07 06:46:29;;;;;;;17.10;5.87;;;10.40;99.90;;;;;;5059279;28;20494;-61
2023/01/07 06:48:56;;;;;;;22.97;6.53;;;10.40;99.90;;;;;;5076741;28;20489;-61
2023/01/07 06:51:22;;;;;;;18.40;6.30;;;10.40;99.90;;;;;;5062444;28;20490;-61
2023/01/07 06:53:49;;;;;;;25.40;7.73;;;10.40;99.90;;;;;;5052542;28;20483;-61
2023/01/07 06:56:16;;;;;;;27.77;7.13;;;10.50;99.90;;;;;;5052409;28;20565;-61
2023/01/07 06:58:43;;;;;;;14.67;5.10;;;10.50;99.90;;;;;;5060388;28;20494;-61
2023/01/07 07:01:11;;;;;;;32.77;10.20;;;10.50;99.90;;;;;;5039262;28;20495;-61
2023/01/07 07:03:38;;;;;;;15.33;4.40;;;10.40;99.90;;;;;;5054827;28;20496;-61
2023/01/07 07:06:05;;;;;;;28.70;9.47;;;10.40;99.90;;;;;;5073410;28;20486;-61
2023/01/07 07:08:32;;;;;;;15.33;5.60;;;10.30;99.90;;;;;;5055777;28;20470;-62
2023/01/07 07:10:59;;;;;;;20.43;5.37;;;10.40;99.90;;;;;;5071000;28;20901;-62
2023/01/07 07:13:25;;;;;;;14.87;5.83;;;10.40;99.90;;;;;;5049401;28;20987;-61
2023/01/07 07:15:52;;;;;;;18.90;6.40;;;10.50;99.90;;;;;;5046772;28;20698;-61
2023/01/07 07:18:21;;;;;;;18.27;5.27;;;10.50;99.90;;;;;;5068143;28;20555;-61
2023/01/07 07:20:47;;;;;;;18.50;7.40;;;10.50;99.90;;;;;;5039057;28;20486;-62
2023/01/07 07:23:15;;;;;;;38.87;9.70;;;10.40;99.90;;;;;;5074292;28;20514;-61
2023/01/07 07:25:42;;;;;;;20.47;4.87;;;10.50;99.90;;;;;;5048157;28;20854;-61
2023/01/07 07:28:09;;;;;;;26.13;7.67;;;10.40;99.90;;;;;;5072431;28;20483;-61
2023/01/07 07:30:36;;;;;;;37.50;8.73;;;10.40;99.90;;;;;;5059406;28;21822;-61
2023/01/07 07:33:03;;;;;;;36.40;7.67;;;10.40;99.90;;;;;;5048698;28;20837;-61
2023/01/07 07:35:31;;;;;;;25.03;6.07;;;10.40;99.90;;;;;;5084916;28;20554;-62
2023/01/07 07:37:58;;;;;;;27.37;7.80;;;10.40;99.90;;;;;;5057200;28;21385;-61
2023/01/07 07:40:25;;;;;;;41.83;8.87;;;10.60;99.90;;;;;;5046958;28;20486;-62
2023/01/07 07:42:51;;;;;;;25.00;6.90;;;10.60;99.90;;;;;;5042473;28;20494;-62
2023/01/07 07:45:18;;;;;;;36.30;7.23;;;11.20;99.90;;;;;;5047079;28;20489;-61
2023/01/07 07:47:45;;;;;;;31.70;6.83;;;;;;;;;;5068482;28;20570;-61
2023/01/07 07:50:12;;;;;;;52.83;12.33;;;10.70;99.90;;;;;;5047742;28;20546;-61
2023/01/07 07:52:41;;;;;;;18.17;5.40;;;;;;;;;;5062622;28;20485;-61
2023/01/07 07:55:08;;;;;;;41.70;9.77;;;10.60;99.90;;;;;;5052676;28;20533;-61
2023/01/07 07:57:35;;;;;;;29.00;6.97;;;10.60;99.90;;;;;;5069534;28;20492;-61
2023/01/07 08:00:01;;;;;;;49.27;11.40;;;10.60;99.90;;;;;;5026876;28;20474;-61
2023/01/07 08:02:28;;;;;;;25.23;5.13;;;;;;;;;;5063316;28;20495;-61
2023/01/07 08:04:55;;;;;;;28.17;7.20;;;10.50;99.90;;;;;;5068465;28;20492;-61
2023/01/07 08:07:22;;;;;;;29.93;7.63;;;10.50;99.90;;;;;;5071354;28;20482;-61
2023/01/07 08:09:50;;;;;;;37.00;8.40;;;10.50;99.90;;;;;;5055485;28;20891;-61
2023/01/07 08:12:16;;;;;;;37.17;8.47;;;10.50;99.90;;;;;;5038458;28;20485;-60
2023/01/07 08:14:43;;;;;;;22.60;6.53;;;10.40;99.90;;;;;;5076845;28;20660;-62
2023/01/07 08:17:10;;;;;;;47.73;10.70;;;10.20;99.90;;;;;;5044061;28;20615;-61
2023/01/07 08:19:36;;;;;;;30.30;7.93;;;10.20;99.90;;;;;;5036043;28;20554;-62
2023/01/07 08:22:03;;;;;;;51.90;11.43;;;6.70;99.90;;;;;;5068434;27;20715;-61
2023/01/07 08:24:30;;;;;;;33.87;6.83;;;10.20;99.90;;;;;;5057921;28;20820;-61
2023/01/07 08:26:58;;;;;;;42.73;9.43;;;10.20;99.90;;;;;;5079737;28;20486;-61
2023/01/07 08:29:25;;;;;;;37.77;7.93;;;;;;;;;;5052987;28;20483;-62
2023/01/07 08:31:52;;;;;;;34.60;7.23;;;10.10;99.90;;;;;;5069549;28;20898;-61
2023/01/07 08:34:18;;;;;;;27.60;6.10;;;10.20;99.90;;;;;;5076210;28;20486;-61
2023/01/07 08:36:45;;;;;;;35.67;7.33;;;;;;;;;;5038343;28;20485;-61
2023/01/07 08:39:12;;;;;;;35.43;8.30;;;10.30;99.90;;;;;;5080705;28;20657;-61
2023/01/07 08:41:39;;;;;;;23.90;6.40;;;10.20;99.90;;;;;;5048249;28;20487;-61
2023/01/07 08:44:07;;;;;;;39.23;8.33;;;10.30;99.90;;;;;;5068278;28;20490;-61
2023/01/07 08:46:34;;;;;;;25.73;5.33;;;10.30;99.90;;;;;;5049803;28;20491;-61
2023/01/07 08:49:01;;;;;;;51.17;9.57;;;10.40;99.90;;;;;;5038263;28;20541;-61
2023/01/07 08:51:28;;;;;;;32.67;7.20;;;;;;;;;;5073654;28;21248;-61
2023/01/07 08:53:55;;;;;;;31.10;6.00;;;;;;;;;;5053296;28;20486;-61
2023/01/07 08:56:22;;;;;;;26.73;6.40;;;10.40;99.90;;;;;;5073633;28;20469;-61
2023/01/07 08:58:49;;;;;;;24.63;6.73;;;10.30;99.90;;;;;;5049906;28;20487;-61
2023/01/07 09:01:17;;;;;;;28.67;7.00;;;10.40;99.90;;;;;;5061151;28;20528;-61
2023/01/07 09:03:43;;;;;;;23.90;5.93;;;10.40;99.90;;;;;;5071350;28;20509;-61
2023/01/07 09:06:10;;;;;;;39.03;10.63;;;10.50;99.90;;;;;;5059839;28;20584;-61
2023/01/07 09:08:37;;;;;;;24.93;5.03;;;;;;;;;;5061912;28;20490;-61
2023/01/07 09:11:04;;;;;;;29.63;8.87;;;;;;;;;;5060933;28;20487;-62
2023/01/07 09:13:31;;;;;;;19.47;6.50;;;10.40;99.90;;;;;;5040473;28;20692;-61
2023/01/07 09:15:58;;;;;;;26.77;6.87;;;10.40;99.90;;;;;;5051845;28;20483;-61
2023/01/07 09:18:26;;;;;;;17.80;5.90;;;10.40;99.90;;;;;;5065694;28;21025;-61
2023/01/07 09:20:53;;;;;;;72.30;24.90;;;10.40;99.90;;;;;;5066676;28;20863;-61
2023/01/07 09:23:20;;;;;;;32.67;7.10;;;10.40;99.90;;;;;;5069553;28;20563;-61
2023/01/07 09:25:47;;;;;;;20.40;6.07;;;;;;;;;;5056823;28;20895;-61
2023/01/07 09:28:13;;;;;;;28.60;8.07;;;10.40;99.90;;;;;;5057397;28;20483;-62
2023/01/07 09:30:40;;;;;;;28.27;5.80;;;10.50;99.90;;;;;;5052637;28;20489;-61
2023/01/07 09:33:07;;;;;;;28.57;8.40;;;10.60;99.90;;;;;;5052034;28;20580;-61
2023/01/07 09:35:35;;;;;;;30.47;8.50;;;10.50;99.90;;;;;;5083543;28;20501;-61
2023/01/07 09:38:02;;;;;;;39.77;8.63;;;10.50;99.90;;;;;;5072776;28;20599;-61
2023/01/07 09:40:34;;;;;;;47.03;11.07;;;10.40;99.90;;;;;;5062034;28;20496;-62
2023/01/07 09:43:06;;;;;;;39.40;9.23;;;10.50;99.90;;;;;;5080308;27;20472;-61
2023/01/07 09:45:36;;;;;;;28.20;7.07;;;10.40;99.90;;;;;;5055254;28;20477;-62
2023/01/07 09:48:10;;;;;;;50.83;10.80;;;10.40;99.90;;;;;;5071108;28;20474;-61
2023/01/07 09:50:50;;;;;;;42.07;9.37;;;10.40;99.90;;;;;;5056078;28;21370;-62
2023/01/07 09:53:22;;;;;;;33.87;7.47;;;10.40;99.90;;;;;;5063583;28;20863;-62
2023/01/07 09:55:52;;;;;;;29.17;6.60;;;10.50;99.90;;;;;;5066054;28;20486;-62
2023/01/07 09:58:20;;;;;;;24.57;6.90;;;10.40;99.90;;;;;;5061828;28;20479;-61
2023/01/07 10:00:54;;;;;;;26.47;8.60;;;;;;;;;;5063159;28;20493;-61
2023/01/07 10:03:24;;;;;;;20.03;7.00;;;;;;;;;;5079075;28;20474;-62
2023/01/07 10:06:01;;;;;;;31.70;7.73;;;;;;;;;;5038452;28;20553;-62
2023/01/07 10:08:32;;;;;;;38.77;8.20;;;;;;;;;;5040203;28;20479;-61
2023/01/07 10:11:07;;;;;;;30.53;8.57;;;10.50;99.90;;;;;;5042934;28;20985;-62
2023/01/07 10:13:55;;;;;;;30.23;6.03;;;10.50;99.90;;;;;;5056022;28;20504;-61
2023/01/07 10:16:27;;;;;;;27.07;7.10;;;10.50;99.90;;;;;;5063012;28;21111;-61
2023/01/07 10:19:02;;;;;;;29.00;6.40;;;10.60;99.90;;;;;;5058660;28;21139;-61
2023/01/07 10:21:39;;;;;;;20.23;6.87;;;;;;;;;;5053948;28;20540;-61
2023/01/07 10:24:11;;;;;;;47.33;10.37;;;;;;;;;;5056293;28;21070;-62
2023/01/07 10:26:39;;;;;;;25.07;6.40;;;;;;;;;;5065596;28;20500;-62
2023/01/07 10:29:12;;;;;;;50.23;13.50;;;10.70;99.90;;;;;;5076695;28;20477;-62
2023/01/07 10:31:40;;;;;;;32.47;9.83;;;;;;;;;;5040630;28;20499;-61
2023/01/07 10:34:13;;;;;;;36.00;11.63;;;;;;;;;;5070201;28;20488;-62
2023/01/07 10:36:52;;;;;;;18.33;6.43;;;10.60;99.90;;;;;;5044355;28;20483;-61
2023/01/07 10:39:28;;;;;;;28.83;8.40;;;10.70;99.90;;;;;;5061034;28;20469;-61
2023/01/07 10:42:01;;;;;;;23.27;6.87;;;10.60;99.90;;;;;;5054307;28;20491;-61
2023/01/07 10:44:53;;;;;;;20.33;6.60;;;10.70;99.90;;;;;;5062253;28;20488;-61
2023/01/07 10:47:29;;;;;;;32.77;7.50;;;10.60;99.90;;;;;;5048114;28;20487;-61
2023/01/07 10:50:19;;;;;;;26.40;7.30;;;10.70;99.90;;;;;;5067236;28;20526;-61
2023/01/07 10:52:58;;;;;;;27.80;8.37;;;10.70;99.90;;;;;;5056460;28;20483;-61
2023/01/07 10:55:39;;;;;;;21.97;6.80;;;10.70;99.90;;;;;;5057949;28;20818;-61
2023/01/07 10:58:09;;;;;;;50.83;15.10;;;10.60;99.90;;;;;;5052930;28;22937;-61
2023/01/07 11:00:36;;;;;;;38.77;11.63;;;10.70;99.90;;;;;;5044638;28;20805;-62
2023/01/07 11:03:02;;;;;;;53.10;12.30;;;10.70;99.90;;;;;;5066393;28;20477;-62
2023/01/07 11:05:34;;;;;;;26.20;7.17;;;;;;;;;;5074849;28;20494;-61
2023/01/07 11:08:04;;;;;;;47.03;11.67;;;10.80;99.90;;;;;;5058877;28;20488;-61
2023/01/07 11:10:35;;;;;;;55.67;11.90;;;10.80;99.90;;;;;;5056961;28;21215;-61
2023/01/07 11:13:16;;;;;;;59.50;11.63;;;10.90;99.90;;;;;;5066942;28;20876;-62
2023/01/07 11:15:47;;;;;;;34.13;10.20;;;10.90;99.90;;;;;;5051376;28;21051;-61
2023/01/07 11:18:19;;;;;;;49.50;11.93;;;10.80;99.90;;;;;;5055282;28;20482;-62
2023/01/07 11:20:48;;;;;;;35.60;9.20;;;;;;;;;;5040751;28;20486;-62
2023/01/07 11:23:25;;;;;;;43.53;11.83;;;;;;;;;;5076287;28;20493;-62
2023/01/07 11:25:52;;;;;;;27.57;6.53;;;;;;;;;;5066790;28;20491;-61
2023/01/07 11:28:20;;;;;;;38.63;10.47;;;;;;;;;;5047656;28;20489;-62
2023/01/07 11:30:57;;;;;;;24.00;8.00;;;11.00;99.90;;;;;;5062323;28;20487;-62
2023/01/07 11:33:26;;;;;;;33.83;9.53;;;;;;;;;;5055272;28;20498;-62
2023/01/07 11:35:54;;;;;;;33.40;8.13;;;;;;;;;;5059355;28;20690;-62
2023/01/07 11:38:30;;;;;;;27.57;7.93;;;10.80;99.90;;;;;;5063109;28;21054;-62
2023/01/07 11:40:59;;;;;;;43.83;10.67;;;9.40;99.90;;;;;;5056227;28;20497;-62
2023/01/07 11:43:32;;;;;;;33.73;9.17;;;11.20;99.90;;;;;;5041436;28;20504;-62
2023/01/07 11:46:00;;;;;;;39.33;10.73;;;11.10;99.90;;;;;;5073953;28;20821;-62
2023/01/07 11:48:30;;;;;;;28.60;10.00;;;12.50;99.90;;;;;;5048202;28;20484;-62
2023/01/07 11:50:58;;;;;;;35.13;10.43;;;;;;;;;;5071854;28;20489;-62
2023/01/07 11:53:33;;;;;;;27.73;6.87;;;11.30;99.90;;;;;;5063318;28;20486;-62
2023/01/07 11:56:02;;;;;;;20.90;6.77;;;11.30;99.90;;;;;;5071894;28;20875;-62
2023/01/07 11:58:32;;;;;;;25.57;8.53;;;11.30;99.90;;;;;;5049696;28;20654;-62
2023/01/07 12:01:12;;;;;;;28.63;10.17;;;;;;;;;;5047393;28;20480;-62
2023/01/07 12:03:41;;;;;;;26.93;8.93;;;;;;;;;;5046587;28;21021;-62
2023/01/07 12:06:16;;;;;;;27.03;10.60;;;11.60;99.90;;;;;;5059944;28;20569;-62
2023/01/07 12:08:53;;;;;;;18.53;7.53;;;11.60;99.90;;;;;;5076631;28;20477;-62
2023/01/07 12:11:21;;;;;;;26.07;7.60;;;11.50;99.90;;;;;;5066731;28;20499;-62
2023/01/07 12:13:51;;;;;;;21.03;7.70;;;11.60;99.90;;;;;;5061876;28;20500;-62
2023/01/07 12:16:26;;;;;;;30.83;9.83;;;11.60;99.90;;;;;;5045870;28;20509;-62
2023/01/07 12:19:12;;;;;;;28.10;8.67;;;11.70;99.90;;;;;;5062769;28;21066;-62
2023/01/07 12:21:52;;;;;;;15.87;7.23;;;11.90;99.90;;;;;;5062865;28;20474;-62
2023/01/07 12:24:37;;;;;;;28.83;9.07;;;;;;;;;;5045184;28;20479;-62
2023/01/07 12:27:17;;;;;;;34.60;9.60;;;11.90;99.90;;;;;;5030088;28;20463;-61
2023/01/07 12:29:55;;;;;;;21.00;7.27;;;12.10;99.90;;;;;;5070817;28;20893;-61
2023/01/07 12:32:34;;;;;;;24.67;7.90;;;12.20;99.90;;;;;;5052097;28;21018;-62
2023/01/07 12:35:06;;;;;;;45.40;11.40;;;12.30;99.90;;;;;;5079424;28;20463;-62
2023/01/07 12:37:35;;;;;;;28.23;7.60;;;;;;;;;;5067055;28;20857;-62
2023/01/07 12:40:06;;;;;;;38.43;10.30;;;;;;;;;;5051475;28;20491;-62
2023/01/07 12:42:39;;;;;;;26.93;8.40;;;12.40;99.90;;;;;;5059462;28;20485;-62
2023/01/07 12:45:15;;;;;;;37.37;12.77;;;12.50;99.90;;;;;;5068701;28;20505;-62
2023/01/07 12:47:45;;;;;;;19.33;6.20;;;;;;;;;;5058686;28;20516;-61
2023/01/07 12:50:16;;;;;;;23.80;8.70;;;10.10;99.90;;;;;;5079513;28;20509;-62
2023/01/07 12:52:45;;;;;;;20.77;7.50;;;;;;;;;;5044005;28;20478;-62
2023/01/07 12:55:17;;;;;;;27.53;10.50;;;12.90;99.90;;;;;;5050725;28;20481;-62
2023/01/07 12:57:51;;;;;;;17.33;5.27;;;13.00;99.90;;;;;;5061996;28;20491;-62
2023/01/07 13:00:24;;;;;;;25.37;7.97;;;13.00;99.90;;;;;;5053114;28;21048;-63
2023/01/07 13:02:56;;;;;;;21.20;7.67;;;13.20;99.90;;;;;;5045811;28;20485;-62
2023/01/07 13:05:27;;;;;;;23.10;6.20;;;13.40;99.90;;;;;;5070461;28;20475;-62
2023/01/07 13:08:01;;;;;;;28.27;7.30;;;13.70;99.90;;;;;;5060196;28;20473;-63
2023/01/07 13:10:35;;;;;;;22.53;8.77;;;13.80;99.90;;;;;;5070771;28;20568;-61